Airport ICAO


20:11 UTC

18°C

Heavy thunderstorm rain


An affordable passengers' Moving Map for your aircraft. Made for the iPad and the iPhone
More information here

LIMG Albenga


Albenga ITALY   VFR CB


METAR LIMG 161750Z 25003KT 9999 +TSRA BKN035CB 18/16 Q1009 2h21min





NOTAMS

OPEN